Aviation Digital Data Service (ADDS)

Output produced by METARs form (0956 UTC 23 July 2019)
found at http://www.aviationweather.gov/metar/data/
 
METAR text: WSSL 230900Z VRB02KT 9999 FEW020TCU BKN140 27/23 Q1007
Conditions at: WSSL (SINGAPORE/SELETA, SG) observed 0900 UTC 23 July 2019
Temperature: 27.0°C (81°F)
Dewpoint: 23.0°C (73°F) [RH = 79%]
Pressure (altimeter): 29.73 inches Hg (1007.0 mb)
Winds: variable direction winds at 2 MPH (2 knots; 1.0 m/s)
Visibility: 6 or more miles (10+ km)
Ceiling: 14000 feet AGL
Clouds: few clouds at 2000 feet AGL
broken clouds at 14000 feet AGL
Weather: no significant weather observed at this time

METAR text: WSSL 230800Z VRB02KT 9999 -RA FEW014 FEW018TCU BKN190 27/24 Q1008
Conditions at: WSSL (SINGAPORE/SELETA, SG) observed 0800 UTC 23 July 2019
Temperature: 27.0°C (81°F)
Dewpoint: 24.0°C (75°F) [RH = 84%]
Pressure (altimeter): 29.76 inches Hg (1008.0 mb)
Winds: variable direction winds at 2 MPH (2 knots; 1.0 m/s)
Visibility: 6 or more miles (10+ km)
Ceiling: 19000 feet AGL
Clouds: few clouds at 1400 feet AGL
few clouds at 1800 feet AGL
broken clouds at 19000 feet AGL
Weather: -RA  (light rain)

METAR text: WSSL 230756Z VRB03KT 9999 -RA FEW014 FEW018TCU BKN190 27/23 Q1008
Conditions at: WSSL (SINGAPORE/SELETA, SG) observed 0756 UTC 23 July 2019
Temperature: 27.0°C (81°F)
Dewpoint: 23.0°C (73°F) [RH = 79%]
Pressure (altimeter): 29.76 inches Hg (1008.0 mb)
Winds: variable direction winds at 3 MPH (3 knots; 1.5 m/s)
Visibility: 6 or more miles (10+ km)
Ceiling: 19000 feet AGL
Clouds: few clouds at 1400 feet AGL
few clouds at 1800 feet AGL
broken clouds at 19000 feet AGL
Weather: -RA  (light rain)

METAR text: WSSL 230700Z 21004KT 160V250 7000 -RA FEW014 FEW018TCU BKN200 25/23 Q1008
Conditions at: WSSL (SINGAPORE/SELETA, SG) observed 0700 UTC 23 July 2019
Temperature: 25.0°C (77°F)
Dewpoint: 23.0°C (73°F) [RH = 89%]
Pressure (altimeter): 29.76 inches Hg (1008.0 mb)
Winds: from the SSW (210 degrees) at 5 MPH (4 knots; 2.1 m/s)
Visibility: 4 miles ( 7 km)
Ceiling: 20000 feet AGL
Clouds: few clouds at 1400 feet AGL
few clouds at 1800 feet AGL
broken clouds at 20000 feet AGL
Weather: -RA  (light rain)

METAR text: WSSL 230600Z 28004KT 200V360 9999 FEW014 FEW016TCU FEW018CB BKN200 25/22 Q1009 RETS
Conditions at: WSSL (SINGAPORE/SELETA, SG) observed 0600 UTC 23 July 2019
Temperature: 25.0°C (77°F)
Dewpoint: 22.0°C (72°F) [RH = 83%]
Pressure (altimeter): 29.79 inches Hg (1009.0 mb)
Winds: from the W (280 degrees) at 5 MPH (4 knots; 2.1 m/s)
Visibility: 6 or more miles (10+ km)
Ceiling: 20000 feet AGL
Clouds: few clouds at 1400 feet AGL
few clouds at 1600 feet AGL
few clouds at 1800 feet AGL
broken clouds at 20000 feet AGL
Weather: no significant weather observed at this time

METAR text: WSSL 230518Z 34006KT 280V050 6000 -TSRA FEW010 FEW015CB SCT016TCU 25/22 Q1010
Conditions at: WSSL (SINGAPORE/SELETA, SG) observed 0518 UTC 23 July 2019
Temperature: 25.0°C (77°F)
Dewpoint: 22.0°C (72°F) [RH = 83%]
Pressure (altimeter): 29.82 inches Hg (1010.0 mb)
Winds: from the NNW (340 degrees) at 7 MPH (6 knots; 3.1 m/s)
Visibility: 4 miles ( 6 km)
Ceiling: at least 12,000 feet AGL
Clouds: few clouds at 1000 feet AGL
few clouds at 1500 feet AGL
scattered clouds at 1600 feet AGL
Weather: -TSRA  (light rain associated with thunderstorm(s))

METAR text: WSSL 230500Z 27010G20KT 230V330 8000 VCTS FEW010 FEW015CB SCT016TCU 26/23 Q1010
Conditions at: WSSL (SINGAPORE/SELETA, SG) observed 0500 UTC 23 July 2019
Temperature: 26.0°C (79°F)
Dewpoint: 23.0°C (73°F) [RH = 84%]
Pressure (altimeter): 29.82 inches Hg (1010.0 mb)
Winds: from the W (270 degrees) at 12 MPH (10 knots; 5.1 m/s)
gusting to 23 MPH (20 knots; 10.3 m/s)
Visibility: 5 miles ( 8 km)
Ceiling: at least 12,000 feet AGL
Clouds: few clouds at 1000 feet AGL
few clouds at 1500 feet AGL
scattered clouds at 1600 feet AGL
Weather: VCTS  (thunderstorm in vicinity)

METAR text: WSSL 230452Z 27008KT 220V330 7000 VCTS FEW010 FEW015CB SCT016TCU 26/23 Q1010
Conditions at: WSSL (SINGAPORE/SELETA, SG) observed 0452 UTC 23 July 2019
Temperature: 26.0°C (79°F)
Dewpoint: 23.0°C (73°F) [RH = 84%]
Pressure (altimeter): 29.82 inches Hg (1010.0 mb)
Winds: from the W (270 degrees) at 9 MPH (8 knots; 4.1 m/s)
Visibility: 4 miles ( 7 km)
Ceiling: at least 12,000 feet AGL
Clouds: few clouds at 1000 feet AGL
few clouds at 1500 feet AGL
scattered clouds at 1600 feet AGL
Weather: VCTS  (thunderstorm in vicinity)

METAR text: WSSL 230400Z 17009KT 130V200 9999 FEW014 SCT017TCU BKN140 31/24 Q1010
Conditions at: WSSL (SINGAPORE/SELETA, SG) observed 0400 UTC 23 July 2019
Temperature: 31.0°C (88°F)
Dewpoint: 24.0°C (75°F) [RH = 66%]
Pressure (altimeter): 29.82 inches Hg (1010.0 mb)
Winds: from the S (170 degrees) at 10 MPH (9 knots; 4.6 m/s)
Visibility: 6 or more miles (10+ km)
Ceiling: 14000 feet AGL
Clouds: few clouds at 1400 feet AGL
scattered clouds at 1700 feet AGL
broken clouds at 14000 feet AGL
Weather: no significant weather observed at this time

METAR text: WSSL 230300Z 19007KT 140V230 9999 FEW015 SCT018TCU BKN300 30/23 Q1011
Conditions at: WSSL (SINGAPORE/SELETA, SG) observed 0300 UTC 23 July 2019
Temperature: 30.0°C (86°F)
Dewpoint: 23.0°C (73°F) [RH = 66%]
Pressure (altimeter): 29.85 inches Hg (1011.0 mb)
Winds: from the S (190 degrees) at 8 MPH (7 knots; 3.6 m/s)
Visibility: 6 or more miles (10+ km)
Ceiling: 30000 feet AGL
Clouds: few clouds at 1500 feet AGL
scattered clouds at 1800 feet AGL
broken clouds at 30000 feet AGL
Weather: no significant weather observed at this time

METAR text: WSSL 230200Z 18006KT 120V220 9999 FEW018 FEW020TCU BKN300 29/23 Q1010
Conditions at: WSSL (SINGAPORE/SELETA, SG) observed 0200 UTC 23 July 2019
Temperature: 29.0°C (84°F)
Dewpoint: 23.0°C (73°F) [RH = 70%]
Pressure (altimeter): 29.82 inches Hg (1010.0 mb)
Winds: from the S (180 degrees) at 7 MPH (6 knots; 3.1 m/s)
Visibility: 6 or more miles (10+ km)
Ceiling: 30000 feet AGL
Clouds: few clouds at 1800 feet AGL
few clouds at 2000 feet AGL
broken clouds at 30000 feet AGL
Weather: no significant weather observed at this time

METAR text: WSSL 230100Z 18007KT 9999 FEW018TCU BKN140 28/24 Q1010
Conditions at: WSSL (SINGAPORE/SELETA, SG) observed 0100 UTC 23 July 2019
Temperature: 28.0°C (82°F)
Dewpoint: 24.0°C (75°F) [RH = 79%]
Pressure (altimeter): 29.82 inches Hg (1010.0 mb)
Winds: from the S (180 degrees) at 8 MPH (7 knots; 3.6 m/s)
Visibility: 6 or more miles (10+ km)
Ceiling: 14000 feet AGL
Clouds: few clouds at 1800 feet AGL
broken clouds at 14000 feet AGL
Weather: no significant weather observed at this time

METAR text: WSSL 230000Z VRB02KT 9999 FEW018 BKN130 27/24 Q1009
Conditions at: WSSL (SINGAPORE/SELETA, SG) observed 0000 UTC 23 July 2019
Temperature: 27.0°C (81°F)
Dewpoint: 24.0°C (75°F) [RH = 84%]
Pressure (altimeter): 29.79 inches Hg (1009.0 mb)
Winds: variable direction winds at 2 MPH (2 knots; 1.0 m/s)
Visibility: 6 or more miles (10+ km)
Ceiling: 13000 feet AGL
Clouds: few clouds at 1800 feet AGL
broken clouds at 13000 feet AGL
Weather: no significant weather observed at this time

METAR text: WSSL 222300Z 13004KT 080V180 9999 FEW012 FEW016TCU BKN150 27/24 Q1009
Conditions at: WSSL (SINGAPORE/SELETA, SG) observed 2300 UTC 22 July 2019
Temperature: 27.0°C (81°F)
Dewpoint: 24.0°C (75°F) [RH = 84%]
Pressure (altimeter): 29.79 inches Hg (1009.0 mb)
Winds: from the SE (130 degrees) at 5 MPH (4 knots; 2.1 m/s)
Visibility: 6 or more miles (10+ km)
Ceiling: 15000 feet AGL
Clouds: few clouds at 1200 feet AGL
few clouds at 1600 feet AGL
broken clouds at 15000 feet AGL
Weather: no significant weather observed at this time

METAR text: WSSL 222200Z 14003KT 110V180 9999 -RA FEW012 BKN150 28/25 Q1009
Conditions at: WSSL (SINGAPORE/SELETA, SG) observed 2200 UTC 22 July 2019
Temperature: 28.0°C (82°F)
Dewpoint: 25.0°C (77°F) [RH = 84%]
Pressure (altimeter): 29.79 inches Hg (1009.0 mb)
Winds: from the SE (140 degrees) at 3 MPH (3 knots; 1.5 m/s)
Visibility: 6 or more miles (10+ km)
Ceiling: 15000 feet AGL
Clouds: few clouds at 1200 feet AGL
broken clouds at 15000 feet AGL
Weather: -RA  (light rain)

METAR text: WSSL 222100Z 11004KT 080V140 9999 FEW012 SCT018 BKN150 28/24 Q1009
Conditions at: WSSL (SINGAPORE/SELETA, SG) observed 2100 UTC 22 July 2019
Temperature: 28.0°C (82°F)
Dewpoint: 24.0°C (75°F) [RH = 79%]
Pressure (altimeter): 29.79 inches Hg (1009.0 mb)
Winds: from the ESE (110 degrees) at 5 MPH (4 knots; 2.1 m/s)
Visibility: 6 or more miles (10+ km)
Ceiling: 15000 feet AGL
Clouds: few clouds at 1200 feet AGL
scattered clouds at 1800 feet AGL
broken clouds at 15000 feet AGL
Weather: no significant weather observed at this time

METAR text: WSSL 222000Z 10004KT 9999 FEW015 BKN150 27/24 Q1009
Conditions at: WSSL (SINGAPORE/SELETA, SG) observed 2000 UTC 22 July 2019
Temperature: 27.0°C (81°F)
Dewpoint: 24.0°C (75°F) [RH = 84%]
Pressure (altimeter): 29.79 inches Hg (1009.0 mb)
Winds: from the E (100 degrees) at 5 MPH (4 knots; 2.1 m/s)
Visibility: 6 or more miles (10+ km)
Ceiling: 15000 feet AGL
Clouds: few clouds at 1500 feet AGL
broken clouds at 15000 feet AGL
Weather: no significant weather observed at this time

METAR text: WSSL 221900Z 09005KT 9999 FEW018 BKN150 27/24 Q1009
Conditions at: WSSL (SINGAPORE/SELETA, SG) observed 1900 UTC 22 July 2019
Temperature: 27.0°C (81°F)
Dewpoint: 24.0°C (75°F) [RH = 84%]
Pressure (altimeter): 29.79 inches Hg (1009.0 mb)
Winds: from the E (90 degrees) at 6 MPH (5 knots; 2.6 m/s)
Visibility: 6 or more miles (10+ km)
Ceiling: 15000 feet AGL
Clouds: few clouds at 1800 feet AGL
broken clouds at 15000 feet AGL
Weather: no significant weather observed at this time

METAR text: WSSL 221800Z VRB02KT 9999 FEW018 BKN150 27/24 Q1010
Conditions at: WSSL (SINGAPORE/SELETA, SG) observed 1800 UTC 22 July 2019
Temperature: 27.0°C (81°F)
Dewpoint: 24.0°C (75°F) [RH = 84%]
Pressure (altimeter): 29.82 inches Hg (1010.0 mb)
Winds: variable direction winds at 2 MPH (2 knots; 1.0 m/s)
Visibility: 6 or more miles (10+ km)
Ceiling: 15000 feet AGL
Clouds: few clouds at 1800 feet AGL
broken clouds at 15000 feet AGL
Weather: no significant weather observed at this time

METAR text: WSSL 221700Z 06002KT 9999 FEW018 BKN150 26/24 Q1011
Conditions at: WSSL (SINGAPORE/SELETA, SG) observed 1700 UTC 22 July 2019
Temperature: 26.0°C (79°F)
Dewpoint: 24.0°C (75°F) [RH = 89%]
Pressure (altimeter): 29.85 inches Hg (1011.0 mb)
Winds: from the ENE (60 degrees) at 2 MPH (2 knots; 1.0 m/s)
Visibility: 6 or more miles (10+ km)
Ceiling: 15000 feet AGL
Clouds: few clouds at 1800 feet AGL
broken clouds at 15000 feet AGL
Weather: no significant weather observed at this time

METAR text: WSSL 221600Z 33003KT 300V010 9999 FEW018 BKN150 26/24 Q1011
Conditions at: WSSL (SINGAPORE/SELETA, SG) observed 1600 UTC 22 July 2019
Temperature: 26.0°C (79°F)
Dewpoint: 24.0°C (75°F) [RH = 89%]
Pressure (altimeter): 29.85 inches Hg (1011.0 mb)
Winds: from the NNW (330 degrees) at 3 MPH (3 knots; 1.5 m/s)
Visibility: 6 or more miles (10+ km)
Ceiling: 15000 feet AGL
Clouds: few clouds at 1800 feet AGL
broken clouds at 15000 feet AGL
Weather: no significant weather observed at this time

METAR text: WSSL 221500Z VRB02KT 9999 FEW018 SCT150 BKN300 27/24 Q1011
Conditions at: WSSL (SINGAPORE/SELETA, SG) observed 1500 UTC 22 July 2019
Temperature: 27.0°C (81°F)
Dewpoint: 24.0°C (75°F) [RH = 84%]
Pressure (altimeter): 29.85 inches Hg (1011.0 mb)
Winds: variable direction winds at 2 MPH (2 knots; 1.0 m/s)
Visibility: 6 or more miles (10+ km)
Ceiling: 30000 feet AGL
Clouds: few clouds at 1800 feet AGL
scattered clouds at 15000 feet AGL
broken clouds at 30000 feet AGL
Weather: no significant weather observed at this time

METAR text: WSSL 221400Z VRB01KT 9999 FEW018 BKN300 26/24 Q1010
Conditions at: WSSL (SINGAPORE/SELETA, SG) observed 1400 UTC 22 July 2019
Temperature: 26.0°C (79°F)
Dewpoint: 24.0°C (75°F) [RH = 89%]
Pressure (altimeter): 29.82 inches Hg (1010.0 mb)
Winds: variable direction winds at 1 MPH (1 knots; 0.5 m/s)
Visibility: 6 or more miles (10+ km)
Ceiling: 30000 feet AGL
Clouds: few clouds at 1800 feet AGL
broken clouds at 30000 feet AGL
Weather: no significant weather observed at this time

METAR text: WSSL 221300Z 35002KT 9999 FEW018 BKN300 26/23 Q1009
Conditions at: WSSL (SINGAPORE/SELETA, SG) observed 1300 UTC 22 July 2019
Temperature: 26.0°C (79°F)
Dewpoint: 23.0°C (73°F) [RH = 84%]
Pressure (altimeter): 29.79 inches Hg (1009.0 mb)
Winds: from the N (350 degrees) at 2 MPH (2 knots; 1.0 m/s)
Visibility: 6 or more miles (10+ km)
Ceiling: 30000 feet AGL
Clouds: few clouds at 1800 feet AGL
broken clouds at 30000 feet AGL
Weather: no significant weather observed at this time

METAR text: WSSL 221200Z 35004KT 9999 FEW018 BKN300 26/23 Q1009
Conditions at: WSSL (SINGAPORE/SELETA, SG) observed 1200 UTC 22 July 2019
Temperature: 26.0°C (79°F)
Dewpoint: 23.0°C (73°F) [RH = 84%]
Pressure (altimeter): 29.79 inches Hg (1009.0 mb)
Winds: from the N (350 degrees) at 5 MPH (4 knots; 2.1 m/s)
Visibility: 6 or more miles (10+ km)
Ceiling: 30000 feet AGL
Clouds: few clouds at 1800 feet AGL
broken clouds at 30000 feet AGL
Weather: no significant weather observed at this time

METAR text: WSSL 221100Z 04003KT 9999 FEW020 BKN300 27/22 Q1008
Conditions at: WSSL (SINGAPORE/SELETA, SG) observed 1100 UTC 22 July 2019
Temperature: 27.0°C (81°F)
Dewpoint: 22.0°C (72°F) [RH = 74%]
Pressure (altimeter): 29.76 inches Hg (1008.0 mb)
Winds: from the NE (40 degrees) at 3 MPH (3 knots; 1.5 m/s)
Visibility: 6 or more miles (10+ km)
Ceiling: 30000 feet AGL
Clouds: few clouds at 2000 feet AGL
broken clouds at 30000 feet AGL
Weather: no significant weather observed at this time

METAR text: WSSL 221000Z VRB02KT 9999 FEW020 BKN150 27/23 Q1007
Conditions at: WSSL (SINGAPORE/SELETA, SG) observed 1000 UTC 22 July 2019
Temperature: 27.0°C (81°F)
Dewpoint: 23.0°C (73°F) [RH = 79%]
Pressure (altimeter): 29.73 inches Hg (1007.0 mb)
Winds: variable direction winds at 2 MPH (2 knots; 1.0 m/s)
Visibility: 6 or more miles (10+ km)
Ceiling: 15000 feet AGL
Clouds: few clouds at 2000 feet AGL
broken clouds at 15000 feet AGL
Weather: no significant weather observed at this time

METAR text: WSSL 220900Z VRB02KT 9999 FEW018 BKN130 27/22 Q1007 RETS
Conditions at: WSSL (SINGAPORE/SELETA, SG) observed 0900 UTC 22 July 2019
Temperature: 27.0°C (81°F)
Dewpoint: 22.0°C (72°F) [RH = 74%]
Pressure (altimeter): 29.73 inches Hg (1007.0 mb)
Winds: variable direction winds at 2 MPH (2 knots; 1.0 m/s)
Visibility: 6 or more miles (10+ km)
Ceiling: 13000 feet AGL
Clouds: few clouds at 1800 feet AGL
broken clouds at 13000 feet AGL
Weather: no significant weather observed at this time

METAR text: WSSL 220840Z 29003KT 230V360 9999 FEW018 SCT040 BKN180 26/23 Q1008 RETS
Conditions at: WSSL (SINGAPORE/SELETA, SG) observed 0840 UTC 22 July 2019
Temperature: 26.0°C (79°F)
Dewpoint: 23.0°C (73°F) [RH = 84%]
Pressure (altimeter): 29.76 inches Hg (1008.0 mb)
Winds: from the WNW (290 degrees) at 3 MPH (3 knots; 1.5 m/s)
Visibility: 6 or more miles (10+ km)
Ceiling: 18000 feet AGL
Clouds: few clouds at 1800 feet AGL
scattered clouds at 4000 feet AGL
broken clouds at 18000 feet AGL
Weather: no significant weather observed at this time

METAR text: WSSL 220800Z 33010KT 300V360 9999 -TSRA FEW008 SCT015TCU FEW017CB 26/22 Q1008
Conditions at: WSSL (SINGAPORE/SELETA, SG) observed 0800 UTC 22 July 2019
Temperature: 26.0°C (79°F)
Dewpoint: 22.0°C (72°F) [RH = 79%]
Pressure (altimeter): 29.76 inches Hg (1008.0 mb)
Winds: from the NNW (330 degrees) at 12 MPH (10 knots; 5.1 m/s)
Visibility: 6 or more miles (10+ km)
Ceiling: at least 12,000 feet AGL
Clouds: few clouds at 800 feet AGL
scattered clouds at 1500 feet AGL
few clouds at 1700 feet AGL
Weather: -TSRA  (light rain associated with thunderstorm(s))

METAR text: WSSL 220740Z VRB06KT 9999 VCTS FEW012 SCT015TCU FEW017CB 29/23 Q1007
Conditions at: WSSL (SINGAPORE/SELETA, SG) observed 0740 UTC 22 July 2019
Temperature: 29.0°C (84°F)
Dewpoint: 23.0°C (73°F) [RH = 70%]
Pressure (altimeter): 29.73 inches Hg (1007.0 mb)
Winds: variable direction winds at 7 MPH (6 knots; 3.1 m/s)
Visibility: 6 or more miles (10+ km)
Ceiling: at least 12,000 feet AGL
Clouds: few clouds at 1200 feet AGL
scattered clouds at 1500 feet AGL
few clouds at 1700 feet AGL
Weather: VCTS  (thunderstorm in vicinity)

METAR text: WSSL 220700Z 15008KT 130V200 9999 VCSH FEW015 BKN018TCU 31/23 Q1007
Conditions at: WSSL (SINGAPORE/SELETA, SG) observed 0700 UTC 22 July 2019
Temperature: 31.0°C (88°F)
Dewpoint: 23.0°C (73°F) [RH = 63%]
Pressure (altimeter): 29.73 inches Hg (1007.0 mb)
Winds: from the SSE (150 degrees) at 9 MPH (8 knots; 4.1 m/s)
Visibility: 6 or more miles (10+ km)
Ceiling: 1800 feet AGL
Clouds: few clouds at 1500 feet AGL
broken clouds at 1800 feet AGL
Weather: VCSH  (showers in vicinity)

METAR text: WSSL 220600Z 17004KT 090V260 9999 BKN020 33/22 Q1008
Conditions at: WSSL (SINGAPORE/SELETA, SG) observed 0600 UTC 22 July 2019
Temperature: 33.0°C (91°F)
Dewpoint: 22.0°C (72°F) [RH = 53%]
Pressure (altimeter): 29.76 inches Hg (1008.0 mb)
Winds: from the S (170 degrees) at 5 MPH (4 knots; 2.1 m/s)
Visibility: 6 or more miles (10+ km)
Ceiling: 2000 feet AGL
Clouds: broken clouds at 2000 feet AGL
Weather: no significant weather observed at this time

METAR text: WSSL 220500Z 14004KT 070V220 9999 SCT020 32/24 Q1009
Conditions at: WSSL (SINGAPORE/SELETA, SG) observed 0500 UTC 22 July 2019
Temperature: 32.0°C (90°F)
Dewpoint: 24.0°C (75°F) [RH = 63%]
Pressure (altimeter): 29.79 inches Hg (1009.0 mb)
Winds: from the SE (140 degrees) at 5 MPH (4 knots; 2.1 m/s)
Visibility: 6 or more miles (10+ km)
Ceiling: at least 12,000 feet AGL
Clouds: scattered clouds at 2000 feet AGL
Weather: no significant weather observed at this time

METAR text: WSSL 220400Z 16005KT 130V210 9999 SCT018 BKN150 31/24 Q1009
Conditions at: WSSL (SINGAPORE/SELETA, SG) observed 0400 UTC 22 July 2019
Temperature: 31.0°C (88°F)
Dewpoint: 24.0°C (75°F) [RH = 66%]
Pressure (altimeter): 29.79 inches Hg (1009.0 mb)
Winds: from the SSE (160 degrees) at 6 MPH (5 knots; 2.6 m/s)
Visibility: 6 or more miles (10+ km)
Ceiling: 15000 feet AGL
Clouds: scattered clouds at 1800 feet AGL
broken clouds at 15000 feet AGL
Weather: no significant weather observed at this time

METAR text: WSSL 220300Z 19006KT 160V230 9999 FEW016 BKN140 30/23 Q1010
Conditions at: WSSL (SINGAPORE/SELETA, SG) observed 0300 UTC 22 July 2019
Temperature: 30.0°C (86°F)
Dewpoint: 23.0°C (73°F) [RH = 66%]
Pressure (altimeter): 29.82 inches Hg (1010.0 mb)
Winds: from the S (190 degrees) at 7 MPH (6 knots; 3.1 m/s)
Visibility: 6 or more miles (10+ km)
Ceiling: 14000 feet AGL
Clouds: few clouds at 1600 feet AGL
broken clouds at 14000 feet AGL
Weather: no significant weather observed at this time

METAR text: WSSL 220200Z 15007KT 9999 FEW018 BKN140 30/24 Q1010
Conditions at: WSSL (SINGAPORE/SELETA, SG) observed 0200 UTC 22 July 2019
Temperature: 30.0°C (86°F)
Dewpoint: 24.0°C (75°F) [RH = 70%]
Pressure (altimeter): 29.82 inches Hg (1010.0 mb)
Winds: from the SSE (150 degrees) at 8 MPH (7 knots; 3.6 m/s)
Visibility: 6 or more miles (10+ km)
Ceiling: 14000 feet AGL
Clouds: few clouds at 1800 feet AGL
broken clouds at 14000 feet AGL
Weather: no significant weather observed at this time

METAR text: WSSL 220100Z 18005KT 9999 FEW018 BKN140 29/24 Q1009
Conditions at: WSSL (SINGAPORE/SELETA, SG) observed 0100 UTC 22 July 2019
Temperature: 29.0°C (84°F)
Dewpoint: 24.0°C (75°F) [RH = 74%]
Pressure (altimeter): 29.79 inches Hg (1009.0 mb)
Winds: from the S (180 degrees) at 6 MPH (5 knots; 2.6 m/s)
Visibility: 6 or more miles (10+ km)
Ceiling: 14000 feet AGL
Clouds: few clouds at 1800 feet AGL
broken clouds at 14000 feet AGL
Weather: no significant weather observed at this time

METAR text: WSSL 220000Z VRB02KT 9999 FEW018 BKN140 28/24 Q1009
Conditions at: WSSL (SINGAPORE/SELETA, SG) observed 0000 UTC 22 July 2019
Temperature: 28.0°C (82°F)
Dewpoint: 24.0°C (75°F) [RH = 79%]
Pressure (altimeter): 29.79 inches Hg (1009.0 mb)
Winds: variable direction winds at 2 MPH (2 knots; 1.0 m/s)
Visibility: 6 or more miles (10+ km)
Ceiling: 14000 feet AGL
Clouds: few clouds at 1800 feet AGL
broken clouds at 14000 feet AGL
Weather: no significant weather observed at this time

METAR text: WSSL 212300Z 13003KT 9999 FEW016 BKN150 28/23 Q1008
Conditions at: WSSL (SINGAPORE/SELETA, SG) observed 2300 UTC 21 July 2019
Temperature: 28.0°C (82°F)
Dewpoint: 23.0°C (73°F) [RH = 74%]
Pressure (altimeter): 29.76 inches Hg (1008.0 mb)
Winds: from the SE (130 degrees) at 3 MPH (3 knots; 1.5 m/s)
Visibility: 6 or more miles (10+ km)
Ceiling: 15000 feet AGL
Clouds: few clouds at 1600 feet AGL
broken clouds at 15000 feet AGL
Weather: no significant weather observed at this time

METAR text: WSSL 212200Z 14004KT 9999 FEW016 BKN150 28/24 Q1008
Conditions at: WSSL (SINGAPORE/SELETA, SG) observed 2200 UTC 21 July 2019
Temperature: 28.0°C (82°F)
Dewpoint: 24.0°C (75°F) [RH = 79%]
Pressure (altimeter): 29.76 inches Hg (1008.0 mb)
Winds: from the SE (140 degrees) at 5 MPH (4 knots; 2.1 m/s)
Visibility: 6 or more miles (10+ km)
Ceiling: 15000 feet AGL
Clouds: few clouds at 1600 feet AGL
broken clouds at 15000 feet AGL
Weather: no significant weather observed at this time

Forecast for: AMD
Text: TAF AMD WSSL 230800Z 2308/2412 17009KT 9999 FEW015 SCT020
Forecast period: 0800 UTC 23 July 2019 to 1200 UTC 24 July 2019
Forecast type: FROM: standard forecast or significant change
Winds: from the S (170 degrees) at 10 MPH (9 knots; 4.6 m/s)
Visibility: 6 or more miles 10+ km)
Ceiling: at least 12,000 feet AGL
Clouds: few clouds at 1500 feet AGL
scattered clouds at 2000 feet AGL
Weather: no significant weather forecast for this period
Text: PROB30
Forecast period: 0500 to 0900 UTC 24 July 2019
Forecast type: TEMPORARY: The following changes expected for less than half the time period
Visibility: 1.86 miles (2.99 km)
Ceiling: 1500 feet AGL
Clouds: few clouds at 1200 feet AGL
broken clouds at 1500 feet AGL
Weather: TSRA  (rain associated with thunderstorm(s))